createdAt,value
2019-01-15T00:00:39.434Z,997.90
2019-01-15T00:01:45.986Z,997.91
2019-01-15T00:02:52.036Z,998.01
2019-01-15T00:03:58.086Z,998.06
2019-01-15T00:05:04.148Z,998.14
2019-01-15T00:06:10.180Z,998.13
2019-01-15T00:07:16.209Z,998.23
2019-01-15T00:08:22.083Z,998.31
2019-01-15T00:09:28.328Z,998.38
2019-01-15T00:10:34.363Z,998.38
2019-01-15T00:11:40.382Z,998.41
2019-01-15T00:12:45.928Z,998.41
2019-01-15T00:13:51.970Z,998.40
2019-01-15T00:14:58.632Z,998.50
2019-01-15T00:16:04.059Z,998.49
2019-01-15T00:17:10.119Z,998.55
2019-01-15T00:18:16.140Z,998.53
2019-01-15T00:19:22.170Z,998.60
2019-01-15T00:20:28.230Z,998.63
2019-01-15T00:21:34.758Z,998.71
2019-01-15T00:22:40.808Z,998.66
2019-01-15T00:23:46.371Z,998.63
2019-01-15T00:24:52.390Z,998.69
2019-01-15T00:25:58.920Z,998.65
2019-01-15T00:27:04.962Z,998.70
2019-01-15T00:28:10.504Z,998.69
2019-01-15T00:29:17.047Z,998.71
2019-01-15T00:30:23.079Z,998.73
2019-01-15T00:31:28.633Z,998.77
2019-01-15T00:32:35.170Z,998.75
2019-01-15T00:33:41.199Z,998.83
2019-01-15T00:34:47.246Z,998.80
2019-01-15T00:35:53.304Z,998.82
2019-01-15T00:36:58.830Z,998.83
2019-01-15T00:38:05.352Z,998.84
2019-01-15T00:39:11.392Z,998.89
2019-01-15T00:40:16.944Z,998.96
2019-01-15T00:41:22.963Z,998.99
2019-01-15T00:42:29.483Z,999.02
2019-01-15T00:43:35.530Z,999.06
2019-01-15T00:44:41.577Z,999.14
2019-01-15T00:45:47.612Z,999.15
2019-01-15T00:46:53.640Z,999.18
2019-01-15T00:47:59.682Z,999.25
2019-01-15T00:49:05.706Z,999.24
2019-01-15T00:50:11.748Z,999.32
2019-01-15T00:51:17.797Z,999.38
2019-01-15T00:52:23.320Z,999.43
2019-01-15T00:53:29.355Z,999.47
2019-01-15T00:54:35.407Z,999.50
2019-01-15T00:55:41.928Z,999.63
2019-01-15T00:56:47.947Z,999.64
2019-01-15T00:57:53.967Z,999.72
2019-01-15T00:58:59.517Z,999.82
2019-01-15T01:00:06.149Z,999.85
2019-01-15T01:01:12.063Z,999.89
2019-01-15T01:02:18.096Z,999.99
2019-01-15T01:03:23.644Z,1000.01
2019-01-15T01:04:29.667Z,999.94
2019-01-15T01:05:36.215Z,999.96
2019-01-15T01:06:42.224Z,1000.02
2019-01-15T01:07:49.262Z,999.95
2019-01-15T01:08:53.801Z,999.93
2019-01-15T01:09:59.846Z,999.94
2019-01-15T01:11:06.361Z,999.94
2019-01-15T01:12:11.907Z,999.95
2019-01-15T01:13:18.429Z,999.94
2019-01-15T01:14:23.977Z,999.86
2019-01-15T01:15:30.006Z,999.85
2019-01-15T01:16:36.050Z,999.80
2019-01-15T01:17:42.621Z,999.79
2019-01-15T01:18:48.610Z,999.81
2019-01-15T01:19:54.658Z,999.84
2019-01-15T01:21:00.698Z,999.81
2019-01-15T01:22:06.724Z,999.82
2019-01-15T01:23:12.772Z,999.76
2019-01-15T01:24:18.818Z,999.78
2019-01-15T01:25:24.848Z,999.78
2019-01-15T01:26:30.390Z,999.77
2019-01-15T01:27:36.432Z,999.77
2019-01-15T01:28:42.975Z,999.75
2019-01-15T01:29:48.549Z,999.74
2019-01-15T01:30:54.530Z,999.76
2019-01-15T01:32:01.074Z,999.74
2019-01-15T01:33:07.116Z,999.70
2019-01-15T01:34:12.665Z,999.64
2019-01-15T01:35:19.190Z,999.58
2019-01-15T01:36:26.225Z,999.60
2019-01-15T01:37:31.285Z,999.56
2019-01-15T01:38:37.297Z,999.58
2019-01-15T01:39:43.358Z,999.57
2019-01-15T01:40:49.364Z,999.59
2019-01-15T01:41:54.917Z,999.65
2019-01-15T01:43:01.474Z,999.62
2019-01-15T01:44:07.485Z,999.67
2019-01-15T01:45:13.518Z,999.71
2019-01-15T01:46:19.559Z,999.72
2019-01-15T01:47:25.594Z,999.79
2019-01-15T01:48:31.144Z,999.83
2019-01-15T01:49:37.644Z,999.89
2019-01-15T01:50:43.185Z,999.89
2019-01-15T01:51:49.718Z,999.99
2019-01-15T01:52:55.797Z,999.96
2019-01-15T01:54:01.798Z,999.95
2019-01-15T01:55:08.274Z,999.93
2019-01-15T01:56:13.347Z,999.96
2019-01-15T01:57:19.886Z,999.92
2019-01-15T01:58:25.907Z,999.94
2019-01-15T01:59:32.945Z,999.91
2019-01-15T02:00:37.984Z,999.89
2019-01-15T02:01:43.710Z,999.89
2019-01-15T02:02:49.538Z,999.94
2019-01-15T02:05:01.615Z,999.95
2019-01-15T02:06:07.635Z,999.93
2019-01-15T02:07:14.175Z,999.95
2019-01-15T02:08:19.707Z,999.96
2019-01-15T02:09:25.731Z,999.94
2019-01-15T02:10:32.267Z,999.97
2019-01-15T02:11:38.291Z,1000.00
2019-01-15T02:12:44.357Z,1000.01
2019-01-15T02:13:50.360Z,999.99
2019-01-15T02:14:56.390Z,999.88
2019-01-15T02:16:01.927Z,999.86
2019-01-15T02:17:08.619Z,999.84
2019-01-15T02:18:13.985Z,999.77
2019-01-15T02:19:20.611Z,999.75
2019-01-15T02:20:26.613Z,999.74
2019-01-15T02:21:32.607Z,999.68
2019-01-15T02:22:38.648Z,999.73
2019-01-15T02:23:44.688Z,999.72
2019-01-15T02:24:50.224Z,999.74
2019-01-15T02:25:56.737Z,999.68
2019-01-15T02:27:02.297Z,999.69
2019-01-15T02:28:08.335Z,999.68
2019-01-15T02:29:14.875Z,999.66
2019-01-15T02:30:20.901Z,999.64
2019-01-15T02:31:26.937Z,999.62
2019-01-15T02:32:32.625Z,999.66
2019-01-15T02:33:38.519Z,999.65
2019-01-15T02:34:44.557Z,999.60
2019-01-15T02:35:50.602Z,999.52
2019-01-15T02:36:57.123Z,999.53
2019-01-15T02:38:03.181Z,999.50
2019-01-15T02:39:09.206Z,999.55
2019-01-15T02:40:15.258Z,999.51
2019-01-15T02:41:21.284Z,999.55
2019-01-15T02:42:27.342Z,999.61
2019-01-15T02:43:33.387Z,999.54
2019-01-15T02:44:39.419Z,999.60
2019-01-15T02:45:45.466Z,999.63
2019-01-15T02:46:51.002Z,999.63
2019-01-15T02:47:57.623Z,999.57
2019-01-15T02:49:04.640Z,999.52
2019-01-15T02:50:09.158Z,999.49
2019-01-15T02:51:15.669Z,999.50
2019-01-15T02:52:21.230Z,999.59
2019-01-15T02:53:27.283Z,999.61
2019-01-15T02:54:33.315Z,999.64
2019-01-15T02:55:39.358Z,999.65
2019-01-15T02:56:45.912Z,999.65
2019-01-15T02:57:51.445Z,999.66
2019-01-15T02:58:57.980Z,999.62
2019-01-15T03:00:03.559Z,999.58
2019-01-15T03:01:09.605Z,999.54
2019-01-15T03:02:15.640Z,999.58
2019-01-15T03:03:21.695Z,999.56
2019-01-15T03:04:27.728Z,999.50
2019-01-15T03:05:33.774Z,999.46
2019-01-15T03:06:40.319Z,999.41
2019-01-15T03:07:46.371Z,999.38
2019-01-15T03:08:52.422Z,999.35
2019-01-15T03:09:57.974Z,999.38
2019-01-15T03:11:04.036Z,999.39
2019-01-15T03:12:10.618Z,999.33
2019-01-15T03:13:16.125Z,999.37
2019-01-15T03:14:22.681Z,999.30
2019-01-15T03:15:28.229Z,999.31
2019-01-15T03:16:34.758Z,999.27
2019-01-15T03:17:40.845Z,999.26
2019-01-15T03:18:47.753Z,999.17
2019-01-15T03:19:52.923Z,999.15
2019-01-15T03:20:58.973Z,999.14
2019-01-15T03:22:04.527Z,999.15
2019-01-15T03:23:11.068Z,999.16
2019-01-15T03:24:16.630Z,999.20
2019-01-15T03:25:23.191Z,999.20
2019-01-15T03:26:29.226Z,999.19
2019-01-15T03:27:35.276Z,999.17
2019-01-15T03:28:40.846Z,999.10
2019-01-15T03:29:47.393Z,999.06
2019-01-15T03:30:53.467Z,999.07
2019-01-15T03:31:59.003Z,998.99
2019-01-15T03:33:05.062Z,998.97
2019-01-15T03:34:11.589Z,998.98
2019-01-15T03:35:17.162Z,998.95
2019-01-15T03:36:23.699Z,998.86
2019-01-15T03:37:29.258Z,998.81
2019-01-15T03:38:35.822Z,998.79
2019-01-15T03:39:41.374Z,998.77
2019-01-15T03:40:47.920Z,998.76
2019-01-15T03:41:53.980Z,998.70
2019-01-15T03:43:03.935Z,998.66
2019-01-15T03:44:05.613Z,998.57
2019-01-15T03:45:12.137Z,998.52
2019-01-15T03:46:18.203Z,998.44
2019-01-15T03:47:23.767Z,998.32
2019-01-15T03:48:30.318Z,998.23
2019-01-15T03:49:35.897Z,998.17
2019-01-15T03:50:42.445Z,998.15
2019-01-15T03:51:48.611Z,998.15
2019-01-15T03:52:54.554Z,998.16
2019-01-15T03:54:01.107Z,998.15
2019-01-15T03:55:06.179Z,998.16
2019-01-15T03:56:12.231Z,998.15
2019-01-15T03:57:18.287Z,998.12
2019-01-15T03:58:24.334Z,998.13
2019-01-15T03:59:30.891Z,998.11
2019-01-15T04:00:36.457Z,998.11
2019-01-15T04:01:42.725Z,998.17
2019-01-15T04:02:48.579Z,998.13
2019-01-15T04:03:55.138Z,998.17
2019-01-15T04:05:01.212Z,998.21
2019-01-15T04:06:07.238Z,998.18
2019-01-15T04:07:12.819Z,998.25
2019-01-15T04:08:18.856Z,998.17
2019-01-15T04:09:25.405Z,998.22
2019-01-15T04:10:31.015Z,998.24
2019-01-15T04:11:37.527Z,998.28
2019-01-15T04:12:43.067Z,998.31
2019-01-15T04:13:49.118Z,998.32
2019-01-15T04:14:55.175Z,998.42
2019-01-15T04:16:01.221Z,998.43
2019-01-15T04:17:07.777Z,998.47
2019-01-15T04:18:13.834Z,998.50
2019-01-15T04:19:19.868Z,998.50
2019-01-15T04:20:25.938Z,998.50
2019-01-15T04:21:31.510Z,998.47
2019-01-15T04:22:38.039Z,998.48
2019-01-15T04:23:44.099Z,998.45
2019-01-15T04:24:50.169Z,998.51
2019-01-15T04:25:55.728Z,998.48
2019-01-15T04:27:02.275Z,998.46
2019-01-15T04:28:08.338Z,998.46
2019-01-15T04:29:14.398Z,998.41
2019-01-15T04:30:19.951Z,998.37
2019-01-15T04:31:26.629Z,998.33
2019-01-15T04:32:32.612Z,998.26
2019-01-15T04:33:38.640Z,998.31
2019-01-15T04:34:44.175Z,998.32
2019-01-15T04:35:50.737Z,998.33
2019-01-15T04:36:56.786Z,998.41
2019-01-15T04:38:02.844Z,998.47
2019-01-15T04:39:08.908Z,998.58
2019-01-15T04:40:14.953Z,998.64
2019-01-15T04:41:21.001Z,998.70
2019-01-15T04:42:27.056Z,998.78
2019-01-15T04:43:33.111Z,998.88
2019-01-15T04:44:38.670Z,998.96
2019-01-15T04:45:46.202Z,999.13
2019-01-15T04:46:50.768Z,999.18
2019-01-15T04:47:57.316Z,999.25
2019-01-15T04:49:02.892Z,999.31
2019-01-15T04:50:09.422Z,999.36
2019-01-15T04:51:14.994Z,999.38
2019-01-15T04:52:21.816Z,999.44
2019-01-15T04:53:27.071Z,999.50
2019-01-15T04:54:33.125Z,999.52
2019-01-15T04:55:39.169Z,999.57
2019-01-15T04:56:45.227Z,999.57
2019-01-15T04:57:51.298Z,999.59
2019-01-15T04:58:57.314Z,999.59
2019-01-15T05:00:03.875Z,999.62
2019-01-15T05:01:09.415Z,999.61
2019-01-15T05:02:15.960Z,999.62
2019-01-15T05:03:21.509Z,999.64
2019-01-15T05:04:28.084Z,999.68
2019-01-15T05:05:33.609Z,999.71
2019-01-15T05:06:40.139Z,999.79
2019-01-15T05:07:46.184Z,999.81
2019-01-15T05:08:53.226Z,999.83
2019-01-15T05:09:58.300Z,999.84
2019-01-15T05:11:05.322Z,999.87
2019-01-15T05:12:09.904Z,999.84
2019-01-15T05:13:15.929Z,999.84
2019-01-15T05:14:21.965Z,999.83
2019-01-15T05:15:28.619Z,999.81
2019-01-15T05:16:34.565Z,999.74
2019-01-15T05:17:40.683Z,999.74
2019-01-15T05:18:46.649Z,999.78
2019-01-15T05:19:52.208Z,999.80
2019-01-15T05:20:58.245Z,999.85
2019-01-15T05:22:04.303Z,999.82
2019-01-15T05:23:10.324Z,999.90
2019-01-15T05:24:16.380Z,999.89
2019-01-15T05:25:22.422Z,999.93
2019-01-15T05:26:28.952Z,999.93
2019-01-15T05:27:35.012Z,999.98
2019-01-15T05:28:40.544Z,999.97
2019-01-15T05:29:46.670Z,1000.01
2019-01-15T05:30:52.644Z,1000.01
2019-01-15T05:31:59.177Z,1000.01
2019-01-15T05:33:04.743Z,999.98
2019-01-15T05:34:10.781Z,999.98
2019-01-15T05:35:17.323Z,999.95
2019-01-15T05:36:22.874Z,999.94
2019-01-15T05:37:29.412Z,999.94
2019-01-15T05:38:34.952Z,1000.01
2019-01-15T05:39:41.501Z,1000.03
2019-01-15T05:40:47.665Z,1000.02
2019-01-15T05:41:53.116Z,1000.01
2019-01-15T05:42:59.632Z,999.96
2019-01-15T05:44:05.198Z,999.97
2019-01-15T05:45:11.218Z,999.89
2019-01-15T05:46:17.740Z,999.89
2019-01-15T05:47:23.781Z,999.96
2019-01-15T05:48:29.342Z,999.95
2019-01-15T05:49:35.395Z,999.83
2019-01-15T05:50:41.928Z,999.81
2019-01-15T05:51:47.478Z,999.80
2019-01-15T05:52:54.004Z,999.74
2019-01-15T05:53:59.556Z,999.73
2019-01-15T05:55:06.110Z,999.68
2019-01-15T05:56:12.161Z,999.70
2019-01-15T05:57:18.200Z,999.66
2019-01-15T05:58:23.749Z,999.62
2019-01-15T05:59:30.149Z,999.69
2019-01-15T06:00:36.340Z,999.65
2019-01-15T06:01:43.380Z,999.70
2019-01-15T06:02:48.918Z,999.70
2019-01-15T06:03:53.969Z,999.64
2019-01-15T06:05:00.622Z,999.60
2019-01-15T06:06:06.065Z,999.59
2019-01-15T06:07:12.605Z,999.63
2019-01-15T06:08:18.638Z,999.58
2019-01-15T06:09:24.687Z,999.59
2019-01-15T06:10:30.733Z,999.63
2019-01-15T06:11:36.778Z,999.54
2019-01-15T06:12:42.324Z,999.56
2019-01-15T06:13:48.358Z,999.57
2019-01-15T06:14:54.895Z,999.56
2019-01-15T06:16:00.933Z,999.54
2019-01-15T06:17:06.996Z,999.51
2019-01-15T06:18:12.535Z,999.45
2019-01-15T06:19:18.627Z,999.43
2019-01-15T06:20:25.110Z,999.41
2019-01-15T06:21:30.652Z,999.34
2019-01-15T06:22:36.727Z,999.36
2019-01-15T06:23:42.768Z,999.35
2019-01-15T06:24:49.292Z,999.36
2019-01-15T06:25:55.786Z,999.30
2019-01-15T06:27:01.382Z,999.26
2019-01-15T06:28:07.435Z,999.25
2019-01-15T06:29:13.478Z,999.22
2019-01-15T06:30:19.505Z,999.16
2019-01-15T06:31:25.113Z,999.09
2019-01-15T06:32:31.603Z,999.08
2019-01-15T06:33:37.171Z,999.01
2019-01-15T06:34:43.209Z,998.88
2019-01-15T06:35:49.755Z,998.84
2019-01-15T06:36:55.798Z,998.72
2019-01-15T06:38:01.866Z,998.71
2019-01-15T06:39:07.939Z,998.63
2019-01-15T06:40:13.973Z,998.40
2019-01-15T06:41:20.026Z,998.28
2019-01-15T06:42:26.624Z,998.25
2019-01-15T06:43:33.130Z,998.18
2019-01-15T06:44:37.699Z,998.18
2019-01-15T06:45:43.741Z,998.17
2019-01-15T06:46:49.896Z,998.19
2019-01-15T06:47:56.355Z,998.15
2019-01-15T06:49:02.409Z,998.22
2019-01-15T06:50:08.618Z,998.27
2019-01-15T06:51:14.017Z,998.23
2019-01-15T06:52:20.613Z,998.24
2019-01-15T06:53:26.699Z,998.26
2019-01-15T06:54:32.714Z,998.23
2019-01-15T06:55:39.266Z,998.26
2019-01-15T06:56:44.822Z,998.21
2019-01-15T06:57:50.899Z,998.18
2019-01-15T06:58:56.933Z,998.23
2019-01-15T07:00:02.505Z,998.26
2019-01-15T07:01:09.069Z,998.26
2019-01-15T07:02:15.126Z,998.28
2019-01-15T07:03:21.205Z,998.32
2019-01-15T07:04:26.761Z,998.29
2019-01-15T07:05:33.321Z,998.27
2019-01-15T07:06:39.396Z,998.27
2019-01-15T07:07:45.442Z,998.31
2019-01-15T07:08:51.508Z,998.32
2019-01-15T07:09:57.561Z,998.30
2019-01-15T07:11:03.645Z,998.35
2019-01-15T07:12:09.207Z,998.39
2019-01-15T07:13:15.260Z,998.49
2019-01-15T07:14:21.841Z,998.60
2019-01-15T07:15:27.889Z,998.55
2019-01-15T07:16:33.940Z,998.53
2019-01-15T07:17:39.540Z,998.49
2019-01-15T07:18:46.093Z,998.53
2019-01-15T07:19:52.151Z,998.55
2019-01-15T07:20:58.230Z,998.60
2019-01-15T07:22:04.289Z,998.61
2019-01-15T07:23:10.351Z,998.59
2019-01-15T07:24:16.440Z,998.61
2019-01-15T07:25:22.604Z,998.64
2019-01-15T07:26:28.628Z,998.60
2019-01-15T07:27:34.639Z,998.61
2019-01-15T07:28:40.217Z,998.62
2019-01-15T07:29:46.786Z,998.65
2019-01-15T07:30:52.849Z,998.66
2019-01-15T07:31:58.921Z,998.69
2019-01-15T07:33:04.970Z,998.67
2019-01-15T07:34:11.056Z,998.71
2019-01-15T07:35:17.124Z,998.67
2019-01-15T07:36:23.507Z,998.65
2019-01-15T07:37:28.754Z,998.62
2019-01-15T07:38:34.828Z,998.54
2019-01-15T07:39:41.428Z,998.50
2019-01-15T07:40:47.616Z,998.54
2019-01-15T07:41:53.559Z,998.49
2019-01-15T07:42:59.215Z,998.52
2019-01-15T07:44:05.685Z,998.55
2019-01-15T07:45:11.770Z,998.48
2019-01-15T07:46:17.857Z,998.52
2019-01-15T07:47:23.430Z,998.53
2019-01-15T07:48:29.501Z,998.49
2019-01-15T07:49:35.571Z,998.52
2019-01-15T07:50:42.138Z,998.52
2019-01-15T07:51:48.209Z,998.58
2019-01-15T07:52:53.807Z,998.53
2019-01-15T07:53:59.867Z,998.52
2019-01-15T07:55:07.026Z,998.51
2019-01-15T07:56:12.012Z,998.47
2019-01-15T07:57:18.608Z,998.45
2019-01-15T07:58:24.671Z,998.42
2019-01-15T07:59:30.754Z,998.38
2019-01-15T08:00:36.825Z,998.29
2019-01-15T08:01:42.922Z,998.24
2019-01-15T08:02:48.998Z,998.17
2019-01-15T08:03:54.629Z,998.06
2019-01-15T08:05:00.676Z,998.13
2019-01-15T08:06:06.755Z,998.02
2019-01-15T08:07:12.845Z,997.97
2019-01-15T08:08:19.419Z,997.96
2019-01-15T08:09:25.504Z,997.94
2019-01-15T08:10:32.068Z,998.02
2019-01-15T08:11:37.196Z,998.05
2019-01-15T08:12:43.783Z,998.22
2019-01-15T08:13:49.884Z,998.34
2019-01-15T08:14:55.963Z,998.47
2019-01-15T08:16:02.054Z,998.61
2019-01-15T08:17:08.155Z,998.77
2019-01-15T08:18:14.241Z,998.94
2019-01-15T08:19:19.823Z,999.09
2019-01-15T08:20:25.898Z,999.20
2019-01-15T08:21:32.023Z,999.27
2019-01-15T08:22:38.621Z,999.35
2019-01-15T08:23:44.682Z,999.39
2019-01-15T08:24:50.768Z,999.40
2019-01-15T08:25:56.361Z,999.41
2019-01-15T08:27:02.445Z,999.39
2019-01-15T08:28:09.030Z,999.38
2019-01-15T08:29:15.105Z,999.43
2019-01-15T08:30:21.202Z,999.49
2019-01-15T08:31:26.796Z,999.55
2019-01-15T08:32:33.380Z,999.64
2019-01-15T08:33:39.468Z,999.68
2019-01-15T08:34:45.546Z,999.74
2019-01-15T08:35:51.136Z,999.76
2019-01-15T08:36:57.220Z,999.78
2019-01-15T08:38:03.827Z,999.78
2019-01-15T08:39:09.405Z,999.80
2019-01-15T08:40:15.775Z,999.90
2019-01-15T08:41:21.552Z,999.88
2019-01-15T08:42:28.156Z,999.96
2019-01-15T08:43:34.227Z,999.96
2019-01-15T08:44:39.808Z,999.93
2019-01-15T08:45:46.410Z,999.98
2019-01-15T08:46:51.991Z,999.90
2019-01-15T08:47:58.617Z,999.89
2019-01-15T08:49:04.181Z,999.89
2019-01-15T08:50:10.777Z,999.84
2019-01-15T08:51:16.855Z,999.85
2019-01-15T08:52:22.949Z,999.80
2019-01-15T08:53:28.556Z,999.78
2019-01-15T08:54:35.240Z,999.78
2019-01-15T08:55:41.247Z,999.76
2019-01-15T08:56:47.342Z,999.72
2019-01-15T08:57:52.944Z,999.75
2019-01-15T08:58:59.540Z,999.74
2019-01-15T09:00:05.145Z,999.64
2019-01-15T09:01:11.241Z,999.59
2019-01-15T09:02:17.348Z,999.59
2019-01-15T09:03:23.463Z,999.53
2019-01-15T09:04:29.565Z,999.52
2019-01-15T09:05:35.664Z,999.51
2019-01-15T09:06:41.789Z,999.51
2019-01-15T09:07:47.887Z,999.53
2019-01-15T09:08:53.989Z,999.61
2019-01-15T09:10:00.628Z,999.66
2019-01-15T09:11:06.190Z,999.63
2019-01-15T09:12:12.804Z,999.61
2019-01-15T09:13:18.931Z,999.62
2019-01-15T09:14:26.965Z,999.71
2019-01-15T09:15:31.131Z,999.69
2019-01-15T09:16:36.745Z,999.61
2019-01-15T09:17:42.853Z,999.63
2019-01-15T09:18:48.960Z,999.59
2019-01-15T09:19:55.596Z,999.59
2019-01-15T09:21:01.641Z,999.53
2019-01-15T09:22:07.259Z,999.56
2019-01-15T09:23:13.862Z,999.49
2019-01-15T09:24:19.952Z,999.46
2019-01-15T09:25:26.057Z,999.43
2019-01-15T09:26:33.172Z,999.41
2019-01-15T09:27:38.275Z,999.35
2019-01-15T09:28:43.888Z,999.36
2019-01-15T09:29:50.605Z,999.32
2019-01-15T09:30:56.620Z,999.32
2019-01-15T09:32:02.718Z,999.26
2019-01-15T09:33:08.854Z,999.22
2019-01-15T09:34:14.456Z,999.16
2019-01-15T09:35:21.072Z,999.21
2019-01-15T09:36:26.696Z,999.18
2019-01-15T09:37:32.815Z,999.11
2019-01-15T09:38:38.931Z,999.03
2019-01-15T09:39:45.555Z,998.97
2019-01-15T09:40:51.661Z,998.91
2019-01-15T09:41:57.283Z,998.91
2019-01-15T09:43:03.906Z,998.90
2019-01-15T09:44:10.015Z,998.89
2019-01-15T09:45:15.635Z,998.85
2019-01-15T09:46:22.255Z,998.85
2019-01-15T09:47:27.881Z,998.85
2019-01-15T09:48:33.989Z,998.89
2019-01-15T09:49:40.609Z,998.87
2019-01-15T09:50:46.722Z,998.84
2019-01-15T09:51:52.847Z,998.91
2019-01-15T09:52:58.607Z,998.86
2019-01-15T09:54:05.074Z,998.80
2019-01-15T09:55:10.694Z,998.79
2019-01-15T09:56:17.311Z,998.80
2019-01-15T09:57:22.928Z,998.87
2019-01-15T09:58:29.529Z,998.85
2019-01-15T09:59:35.189Z,998.83
2019-01-15T10:00:41.266Z,998.80
2019-01-15T10:01:47.390Z,998.80
2019-01-15T10:02:54.011Z,998.80
2019-01-15T10:04:00.116Z,998.77
2019-01-15T10:05:06.254Z,998.71
2019-01-15T10:06:11.861Z,998.76
2019-01-15T10:07:17.980Z,998.66
2019-01-15T10:08:24.096Z,998.71
2019-01-15T10:09:30.234Z,998.71
2019-01-15T10:10:36.836Z,998.74
2019-01-15T10:11:42.958Z,998.77
2019-01-15T10:12:48.584Z,998.80
2019-01-15T10:13:55.207Z,998.80
2019-01-15T10:15:01.323Z,998.75
2019-01-15T10:16:06.946Z,998.77
2019-01-15T10:17:13.080Z,998.63
2019-01-15T10:18:19.198Z,998.60
2019-01-15T10:19:25.821Z,998.58
2019-01-15T10:20:31.967Z,998.55
2019-01-15T10:21:38.090Z,998.42
2019-01-15T10:22:44.220Z,998.47
2019-01-15T10:23:50.384Z,998.48
2019-01-15T10:24:56.606Z,998.53
2019-01-15T10:26:02.663Z,998.39
2019-01-15T10:27:08.772Z,998.35
2019-01-15T10:28:15.418Z,998.20
2019-01-15T10:29:21.089Z,998.10
2019-01-15T10:30:26.757Z,998.07
2019-01-15T10:31:33.375Z,997.95
2019-01-15T10:32:39.017Z,997.96
2019-01-15T10:33:45.678Z,997.89
2019-01-15T10:34:51.810Z,997.86
2019-01-15T10:35:57.466Z,997.85
2019-01-15T10:37:03.597Z,997.83
2019-01-15T10:38:09.749Z,997.84
2019-01-15T10:39:16.383Z,997.85
2019-01-15T10:40:22.606Z,997.84
2019-01-15T10:41:28.184Z,997.85
2019-01-15T10:42:34.328Z,997.86
2019-01-15T10:43:40.969Z,997.90
2019-01-15T10:44:48.710Z,997.94
2019-01-15T10:45:53.746Z,997.94
2019-01-15T10:46:58.920Z,997.92
2019-01-15T10:48:05.071Z,997.89
2019-01-15T10:49:11.717Z,997.80
2019-01-15T10:50:17.906Z,997.77
2019-01-15T10:51:24.033Z,997.76
2019-01-15T10:52:29.691Z,997.72
2019-01-15T10:53:36.339Z,997.71
2019-01-15T10:54:42.606Z,997.67
2019-01-15T10:55:48.165Z,997.68
2019-01-15T10:56:54.314Z,997.70
2019-01-15T10:58:00.980Z,997.77
2019-01-15T10:59:06.651Z,997.68
2019-01-15T11:00:13.314Z,997.58
2019-01-15T11:01:19.014Z,997.55
2019-01-15T11:02:25.665Z,997.48
2019-01-15T11:03:31.356Z,997.43
2019-01-15T11:04:37.543Z,997.38
2019-01-15T11:05:44.203Z,997.32
2019-01-15T11:06:50.371Z,997.24
2019-01-15T11:07:56.543Z,997.17
2019-01-15T11:09:02.724Z,997.15
2019-01-15T11:10:08.899Z,997.13
2019-01-15T11:11:15.083Z,997.12
2019-01-15T11:12:20.766Z,996.94
2019-01-15T11:13:26.943Z,996.79
2019-01-15T11:14:33.623Z,996.55
2019-01-15T11:15:43.378Z,996.38
2019-01-15T11:16:45.490Z,996.40
2019-01-15T11:17:51.682Z,996.35
2019-01-15T11:18:58.369Z,996.26
2019-01-15T11:20:04.604Z,996.21
2019-01-15T11:21:10.255Z,996.02
2019-01-15T11:22:16.449Z,995.97
2019-01-15T11:23:23.147Z,995.92
2019-01-15T11:24:29.348Z,995.77
2019-01-15T11:25:35.555Z,995.72
2019-01-15T11:26:41.258Z,995.74
2019-01-15T11:27:47.462Z,995.79
2019-01-15T11:28:54.163Z,995.50
2019-01-15T11:30:00.366Z,995.35
2019-01-15T11:31:06.607Z,995.26
2019-01-15T11:32:12.776Z,995.24
2019-01-15T11:33:18.483Z,995.30
2019-01-15T11:34:25.178Z,995.42
2019-01-15T11:35:31.370Z,995.38
2019-01-15T11:36:37.092Z,995.51
2019-01-15T11:37:43.286Z,995.43
2019-01-15T11:38:49.504Z,995.26
2019-01-15T11:39:55.694Z,995.33
2019-01-15T11:41:01.890Z,995.35
2019-01-15T11:42:08.629Z,995.30
2019-01-15T11:43:14.793Z,995.30
2019-01-15T11:44:20.993Z,995.39
2019-01-15T11:45:27.183Z,995.46
2019-01-15T11:46:33.420Z,995.41
2019-01-15T11:47:40.606Z,995.45
2019-01-15T11:48:45.327Z,995.47
2019-01-15T11:49:52.052Z,995.37
2019-01-15T11:50:57.764Z,995.32
2019-01-15T11:52:04.606Z,995.37
2019-01-15T11:53:10.205Z,995.12
2019-01-15T11:54:16.436Z,994.94
2019-01-15T11:55:22.663Z,994.95
2019-01-15T11:56:29.386Z,995.04
2019-01-15T11:57:35.130Z,995.11
2019-01-15T11:58:41.356Z,994.93
2019-01-15T11:59:47.594Z,994.59
2019-01-15T12:00:54.326Z,994.65
2019-01-15T12:02:00.610Z,994.90
2019-01-15T12:03:06.304Z,995.15
2019-01-15T12:04:12.542Z,995.16
2019-01-15T12:05:18.776Z,995.31
2019-01-15T12:06:25.508Z,995.42
2019-01-15T12:07:31.736Z,995.49
2019-01-15T12:08:37.469Z,995.39
2019-01-15T12:09:43.696Z,995.31
2019-01-15T12:10:49.926Z,995.39
2019-01-15T12:11:56.640Z,995.49
2019-01-15T12:13:02.892Z,995.40
2019-01-15T12:14:08.607Z,995.42
2019-01-15T12:15:15.025Z,995.36
2019-01-15T12:16:21.045Z,995.40
2019-01-15T12:17:27.269Z,995.42
2019-01-15T12:18:34.038Z,995.58
2019-01-15T12:19:40.188Z,995.71
2019-01-15T12:20:46.422Z,995.85
2019-01-15T12:21:52.144Z,995.94
2019-01-15T12:22:58.863Z,995.99
2019-01-15T12:24:05.311Z,995.92
2019-01-15T12:25:10.796Z,995.81
2019-01-15T12:26:16.997Z,995.73
2019-01-15T12:27:23.218Z,995.73
2019-01-15T12:28:29.928Z,995.56
2019-01-15T12:29:35.665Z,995.66
2019-01-15T12:30:42.369Z,995.68
2019-01-15T12:31:48.090Z,995.53
2019-01-15T12:32:54.323Z,995.58
2019-01-15T12:34:00.546Z,995.52
2019-01-15T12:35:07.280Z,995.56
2019-01-15T12:36:13.518Z,995.58
2019-01-15T12:37:19.731Z,995.52
2019-01-15T12:38:25.538Z,995.18
2019-01-15T12:39:31.729Z,995.00
2019-01-15T12:40:37.978Z,994.98
2019-01-15T12:41:44.229Z,995.09
2019-01-15T12:42:51.465Z,995.26
2019-01-15T12:43:57.238Z,995.30
2019-01-15T12:45:03.085Z,995.42
2019-01-15T12:46:10.214Z,995.31
2019-01-15T12:47:16.604Z,995.15
2019-01-15T12:48:22.743Z,995.06
2019-01-15T12:49:29.478Z,995.06
2019-01-15T12:50:34.748Z,995.00
2019-01-15T12:51:40.997Z,995.04
2019-01-15T12:52:47.240Z,994.97
2019-01-15T12:53:53.496Z,995.29
2019-01-15T12:54:59.856Z,995.51
2019-01-15T12:56:05.981Z,995.79
2019-01-15T12:57:18.844Z,995.77
2019-01-15T12:58:18.606Z,995.62
2019-01-15T12:59:24.708Z,995.51
2019-01-15T13:00:30.651Z,995.35
2019-01-15T13:01:37.209Z,995.26
2019-01-15T13:02:43.415Z,995.18
2019-01-15T13:03:49.162Z,995.33
2019-01-15T13:04:55.876Z,995.35
2019-01-15T13:06:01.619Z,995.33
2019-01-15T13:07:08.339Z,995.22
2019-01-15T13:08:14.075Z,995.29
2019-01-15T13:09:20.807Z,995.41
2019-01-15T13:10:27.019Z,995.28
2019-01-15T13:11:33.247Z,995.30
2019-01-15T13:12:39.166Z,995.20
2019-01-15T13:13:45.194Z,995.23
2019-01-15T13:14:51.459Z,995.12
2019-01-15T13:15:58.158Z,995.04
2019-01-15T13:17:03.890Z,995.07
2019-01-15T13:18:10.606Z,995.06
2019-01-15T13:19:16.824Z,995.02
2019-01-15T13:20:23.048Z,994.93
2019-01-15T13:21:29.305Z,995.13
2019-01-15T13:22:35.007Z,995.21
2019-01-15T13:23:41.758Z,995.08
2019-01-15T13:24:47.474Z,994.83
2019-01-15T13:25:54.187Z,994.83
2019-01-15T13:27:00.416Z,994.92
2019-01-15T13:28:06.144Z,995.03
2019-01-15T13:29:12.370Z,995.00
2019-01-15T13:30:19.072Z,994.97
2019-01-15T13:31:25.302Z,994.95
2019-01-15T13:32:31.032Z,994.90
2019-01-15T13:33:37.750Z,994.99
2019-01-15T13:34:43.986Z,995.02
2019-01-15T13:35:50.210Z,995.11
2019-01-15T13:36:55.946Z,994.84
2019-01-15T13:38:03.175Z,994.80
2019-01-15T13:39:08.405Z,994.70
2019-01-15T13:40:14.658Z,994.74
2019-01-15T13:41:21.406Z,994.61
2019-01-15T13:42:28.628Z,994.57
2019-01-15T13:43:33.379Z,994.71
2019-01-15T13:44:39.629Z,994.73
2019-01-15T13:45:46.336Z,994.73